createdAt,value
2019-05-15T00:02:34.018Z,7.20
2019-05-15T00:05:39.352Z,7.20
2019-05-15T00:08:43.863Z,7.20
2019-05-15T00:11:48.304Z,7.10
2019-05-15T00:14:52.726Z,7.10
2019-05-15T00:17:57.913Z,7.10
2019-05-15T00:21:02.475Z,6.90
2019-05-15T00:24:12.750Z,6.90
2019-05-15T00:27:13.386Z,6.90
2019-05-15T00:30:18.344Z,6.70
2019-05-15T00:33:23.025Z,6.70
2019-05-15T00:36:28.657Z,6.70
2019-05-15T00:39:33.426Z,6.80
2019-05-15T00:42:38.591Z,6.70
2019-05-15T00:45:44.486Z,6.70
2019-05-15T00:48:49.255Z,6.70
2019-05-15T00:51:53.831Z,6.70
2019-05-15T00:54:59.004Z,6.60
2019-05-15T00:58:03.476Z,6.60
2019-05-15T01:01:08.396Z,6.50
2019-05-15T01:04:12.995Z,6.50
2019-05-15T01:07:18.832Z,6.40
2019-05-15T01:10:23.469Z,6.40
2019-05-15T01:13:28.276Z,6.40
2019-05-15T01:16:32.815Z,6.50
2019-05-15T01:19:37.978Z,6.40
2019-05-15T01:22:42.841Z,6.30
2019-05-15T01:25:48.218Z,6.20
2019-05-15T01:28:52.887Z,6.20
2019-05-15T01:31:59.341Z,6.10
2019-05-15T01:35:04.361Z,6.10
2019-05-15T01:38:08.960Z,6.00
2019-05-15T01:41:13.672Z,5.90
2019-05-15T01:44:18.103Z,6.00
2019-05-15T01:47:22.532Z,5.70
2019-05-15T01:50:29.111Z,5.70
2019-05-15T01:53:33.144Z,5.60
2019-05-15T01:56:38.710Z,5.60
2019-05-15T01:59:56.938Z,5.60
2019-05-15T02:02:49.759Z,5.60
2019-05-15T02:05:54.168Z,5.60
2019-05-15T02:08:58.841Z,5.60
2019-05-15T02:12:03.412Z,5.60
2019-05-15T02:15:09.469Z,5.60
2019-05-15T02:18:13.905Z,5.50
2019-05-15T02:21:18.656Z,5.40
2019-05-15T02:24:23.093Z,5.40
2019-05-15T02:27:29.458Z,5.40
2019-05-15T02:30:34.409Z,5.30
2019-05-15T02:33:40.259Z,5.20
2019-05-15T02:36:45.176Z,5.20
2019-05-15T02:39:49.801Z,5.20
2019-05-15T02:42:54.324Z,5.20
2019-05-15T02:46:00.371Z,5.20
2019-05-15T02:49:04.990Z,5.20
2019-05-15T02:52:10.119Z,5.10
2019-05-15T02:55:14.932Z,5.10
2019-05-15T02:58:21.428Z,5.10
2019-05-15T03:01:28.379Z,5.00
2019-05-15T03:04:31.741Z,5.00
2019-05-15T03:07:39.706Z,4.90
2019-05-15T03:10:42.636Z,4.90
2019-05-15T03:13:50.305Z,4.90
2019-05-15T03:16:53.224Z,4.90
2019-05-15T03:19:59.029Z,4.80
2019-05-15T03:23:03.553Z,4.90
2019-05-15T03:26:08.841Z,4.90
2019-05-15T03:29:13.793Z,4.80
2019-05-15T03:32:33.493Z,4.90
2019-05-15T03:35:24.412Z,4.80
2019-05-15T03:38:29.901Z,4.90
2019-05-15T03:41:34.680Z,4.90
2019-05-15T03:44:39.577Z,4.90
2019-05-15T03:47:44.076Z,4.90
2019-05-15T03:50:49.130Z,4.90
2019-05-15T03:53:53.560Z,5.00
2019-05-15T03:56:58.617Z,5.10
2019-05-15T04:00:03.476Z,5.10
2019-05-15T04:03:10.650Z,5.10
2019-05-15T04:06:14.241Z,5.10
2019-05-15T04:09:19.119Z,5.00
2019-05-15T04:12:23.593Z,5.00
2019-05-15T04:15:30.112Z,4.90
2019-05-15T04:18:34.749Z,4.90
2019-05-15T04:21:43.956Z,4.90
2019-05-15T04:24:49.390Z,5.10
2019-05-15T04:27:53.328Z,5.00
2019-05-15T04:30:59.545Z,5.10
2019-05-15T04:34:04.195Z,5.10
2019-05-15T04:37:09.365Z,5.10
2019-05-15T04:40:14.404Z,5.10
2019-05-15T04:43:19.492Z,5.10
2019-05-15T04:46:24.355Z,5.20
2019-05-15T04:49:29.383Z,5.20
2019-05-15T04:52:33.891Z,5.20
2019-05-15T04:55:40.365Z,5.30
2019-05-15T04:58:44.944Z,5.50
2019-05-15T05:01:53.284Z,5.60
2019-05-15T05:04:58.625Z,5.60
2019-05-15T05:08:02.309Z,5.60
2019-05-15T05:11:09.401Z,5.80
2019-05-15T05:14:12.939Z,5.90
2019-05-15T05:17:19.563Z,6.10
2019-05-15T05:20:23.530Z,6.20
2019-05-15T05:23:28.447Z,6.30
2019-05-15T05:26:33.222Z,6.40
2019-05-15T05:29:38.624Z,6.60
2019-05-15T05:32:44.116Z,6.70
2019-05-15T05:35:48.980Z,6.80
2019-05-15T05:38:54.273Z,7.00
2019-05-15T05:41:59.037Z,7.20
2019-05-15T05:45:03.535Z,7.30
2019-05-15T05:48:08.811Z,7.50
2019-05-15T05:51:13.486Z,7.50
2019-05-15T05:54:18.351Z,7.60
2019-05-15T05:57:21.924Z,7.70
2019-05-15T06:00:42.116Z,7.80
2019-05-15T06:03:48.898Z,7.90
2019-05-15T06:07:06.252Z,8.00
2019-05-15T06:09:58.861Z,8.00
2019-05-15T06:13:03.371Z,8.20
2019-05-15T06:16:08.454Z,8.40
2019-05-15T06:19:13.126Z,8.70
2019-05-15T06:22:18.816Z,8.70
2019-05-15T06:25:23.276Z,8.70
2019-05-15T06:28:28.930Z,8.80
2019-05-15T06:31:33.724Z,9.10
2019-05-15T06:34:38.495Z,9.30
2019-05-15T06:37:43.227Z,9.60
2019-05-15T06:40:48.637Z,9.90
2019-05-15T06:43:53.422Z,10.10
2019-05-15T06:46:58.747Z,10.40
2019-05-15T06:50:05.555Z,10.70
2019-05-15T06:53:10.984Z,11.10
2019-05-15T06:56:15.573Z,11.40
2019-05-15T06:59:20.014Z,11.60
2019-05-15T07:02:24.760Z,11.80
2019-05-15T07:05:29.614Z,12.10
2019-05-15T07:08:34.024Z,12.30
2019-05-15T07:11:38.930Z,12.50
2019-05-15T07:14:43.782Z,12.70
2019-05-15T07:17:48.526Z,12.80
2019-05-15T07:20:53.016Z,13.00
2019-05-15T07:23:58.346Z,13.00
2019-05-15T07:27:03.071Z,13.00
2019-05-15T07:30:12.206Z,13.10
2019-05-15T07:33:20.261Z,13.20
2019-05-15T07:36:22.652Z,13.20
2019-05-15T07:39:28.854Z,13.10
2019-05-15T07:42:33.648Z,12.80
2019-05-15T07:45:43.679Z,12.80
2019-05-15T07:48:44.670Z,12.80
2019-05-15T07:51:49.147Z,12.90
2019-05-15T07:54:53.597Z,13.00
2019-05-15T07:57:59.132Z,13.30
2019-05-15T08:01:05.494Z,13.40
2019-05-15T08:04:25.143Z,13.60
2019-05-15T08:07:18.509Z,13.60
2019-05-15T08:10:23.671Z,13.70
2019-05-15T08:13:28.917Z,13.80
2019-05-15T08:16:33.591Z,13.90
2019-05-15T08:19:38.599Z,14.00
2019-05-15T08:22:45.883Z,14.10
2019-05-15T08:25:49.441Z,14.10
2019-05-15T08:28:54.215Z,14.10
2019-05-15T08:31:59.221Z,14.30
2019-05-15T08:35:07.940Z,14.10
2019-05-15T08:38:14.234Z,13.80
2019-05-15T08:41:18.666Z,13.90
2019-05-15T08:44:23.200Z,14.00
2019-05-15T08:47:29.695Z,14.30
2019-05-15T08:50:34.096Z,14.20
2019-05-15T08:53:38.531Z,13.80
2019-05-15T08:56:42.991Z,13.90
2019-05-15T08:59:48.819Z,14.20
2019-05-15T09:02:53.347Z,14.20
2019-05-15T09:05:58.966Z,14.30
2019-05-15T09:09:04.935Z,14.60
2019-05-15T09:12:09.370Z,14.70
2019-05-15T09:15:14.717Z,15.00
2019-05-15T09:18:20.442Z,15.30
2019-05-15T09:21:25.055Z,15.40
2019-05-15T09:24:29.612Z,14.90
2019-05-15T09:27:34.346Z,14.70
2019-05-15T09:30:39.729Z,14.50
2019-05-15T09:33:44.233Z,14.50
2019-05-15T09:36:49.457Z,14.70
2019-05-15T09:39:54.191Z,15.00
2019-05-15T09:42:58.630Z,14.90
2019-05-15T09:46:03.068Z,14.90
2019-05-15T09:49:08.810Z,15.00
2019-05-15T09:52:13.494Z,15.40
2019-05-15T09:55:19.343Z,15.80
2019-05-15T09:58:23.780Z,15.60
2019-05-15T10:01:28.605Z,15.50
2019-05-15T10:04:33.137Z,15.70
2019-05-15T10:07:40.140Z,16.00
2019-05-15T10:10:43.762Z,16.40
2019-05-15T10:13:48.192Z,16.80
2019-05-15T10:16:52.632Z,16.80
2019-05-15T10:19:58.276Z,16.30
2019-05-15T10:23:02.792Z,16.00
2019-05-15T10:26:13.646Z,15.60
2019-05-15T10:29:13.676Z,15.10
2019-05-15T10:32:19.455Z,14.90
2019-05-15T10:35:28.601Z,15.00
2019-05-15T10:38:30.671Z,15.20
2019-05-15T10:41:35.455Z,15.50
2019-05-15T10:44:40.193Z,15.70
2019-05-15T10:47:44.929Z,15.80
2019-05-15T10:50:49.357Z,15.70
2019-05-15T10:53:53.939Z,15.80
2019-05-15T10:57:00.781Z,15.90
2019-05-15T11:00:07.950Z,16.30
2019-05-15T11:03:12.530Z,16.60
2019-05-15T11:06:18.329Z,16.40
2019-05-15T11:09:22.904Z,16.10
2019-05-15T11:12:29.251Z,15.90
2019-05-15T11:15:33.877Z,15.50
2019-05-15T11:18:39.432Z,15.10
2019-05-15T11:21:44.016Z,14.90
2019-05-15T11:24:52.322Z,14.70
2019-05-15T11:27:54.629Z,15.10
2019-05-15T11:30:59.645Z,15.40
2019-05-15T11:34:04.161Z,15.50
2019-05-15T11:37:08.620Z,15.20
2019-05-15T11:40:13.990Z,15.00
2019-05-15T11:43:19.692Z,14.80
2019-05-15T11:46:25.854Z,14.80
2019-05-15T11:49:30.894Z,15.30
2019-05-15T11:52:37.359Z,15.80
2019-05-15T11:55:41.523Z,16.30
2019-05-15T11:58:45.957Z,16.40
2019-05-15T12:01:50.402Z,16.70
2019-05-15T12:04:54.838Z,16.90
2019-05-15T12:07:59.280Z,16.80
2019-05-15T12:11:04.020Z,16.70
2019-05-15T12:14:08.764Z,16.50
2019-05-15T12:17:15.553Z,16.70
2019-05-15T12:20:19.692Z,16.60
2019-05-15T12:23:24.087Z,16.30
2019-05-15T12:26:29.396Z,16.30
2019-05-15T12:29:33.939Z,16.70
2019-05-15T12:32:40.395Z,17.10
2019-05-15T12:35:44.938Z,17.30
2019-05-15T12:38:50.319Z,17.30
2019-05-15T13:00:32.710Z,16.40
2019-05-15T13:03:38.319Z,16.60
2019-05-15T13:06:51.266Z,17.00
2019-05-15T13:09:49.363Z,17.00
2019-05-15T13:13:00.938Z,16.90
2019-05-15T13:15:59.967Z,16.80
2019-05-15T13:19:04.428Z,16.60
2019-05-15T13:22:17.872Z,16.70
2019-05-15T13:25:15.460Z,16.80
2019-05-15T13:28:19.904Z,16.30
2019-05-15T13:31:24.338Z,16.20
2019-05-15T13:34:30.629Z,16.00
2019-05-15T13:37:35.041Z,15.90
2019-05-15T13:40:42.328Z,15.40
2019-05-15T13:43:46.211Z,15.60
2019-05-15T13:46:50.652Z,16.00
2019-05-15T13:49:55.103Z,16.60
2019-05-15T13:52:59.559Z,17.20
2019-05-15T13:56:03.984Z,17.40
2019-05-15T13:59:08.446Z,17.40
2019-05-15T14:02:13.164Z,17.10
2019-05-15T14:05:17.678Z,16.60
2019-05-15T14:08:22.120Z,16.60
2019-05-15T14:11:30.960Z,16.90
2019-05-15T14:14:32.783Z,17.10
2019-05-15T14:17:37.858Z,17.10
2019-05-15T14:20:42.302Z,16.90
2019-05-15T14:23:47.839Z,16.80
2019-05-15T14:26:52.530Z,16.40
2019-05-15T14:29:58.164Z,16.10
2019-05-15T14:33:03.034Z,16.10
2019-05-15T14:36:08.469Z,16.30
2019-05-15T14:39:13.091Z,16.20
2019-05-15T14:42:18.672Z,15.90
2019-05-15T14:45:23.492Z,15.80
2019-05-15T14:48:28.230Z,15.80
2019-05-15T14:51:32.752Z,16.10
2019-05-15T14:54:38.464Z,16.40
2019-05-15T14:57:43.096Z,16.50
2019-05-15T15:00:50.099Z,16.50
2019-05-15T15:03:54.030Z,16.20
2019-05-15T15:06:58.757Z,16.00
2019-05-15T15:10:03.570Z,15.80
2019-05-15T15:13:09.472Z,15.60
2019-05-15T15:16:14.487Z,15.50
2019-05-15T15:19:18.934Z,15.70
2019-05-15T15:22:23.367Z,16.00
2019-05-15T15:25:28.393Z,16.10
2019-05-15T15:28:32.828Z,16.10
2019-05-15T15:31:39.041Z,16.20
2019-05-15T15:34:43.444Z,16.30
2019-05-15T15:37:48.717Z,16.40
2019-05-15T15:40:53.307Z,16.50
2019-05-15T15:43:58.680Z,16.50
2019-05-15T15:47:03.536Z,16.30
2019-05-15T15:50:09.879Z,16.20
2019-05-15T15:53:14.742Z,16.10
2019-05-15T15:56:19.194Z,16.00
2019-05-15T15:59:23.650Z,15.90
2019-05-15T16:02:28.242Z,15.60
2019-05-15T16:05:32.704Z,15.40
2019-05-15T16:08:51.593Z,15.30
2019-05-15T16:11:43.640Z,15.20
2019-05-15T16:14:48.804Z,15.10
2019-05-15T16:17:53.490Z,15.00
2019-05-15T16:20:58.056Z,15.00
2019-05-15T16:24:13.698Z,14.90
2019-05-15T16:27:09.615Z,14.90
2019-05-15T16:30:18.571Z,14.80
2019-05-15T16:33:22.687Z,14.90
2019-05-15T16:36:27.132Z,14.90
2019-05-15T16:39:31.843Z,14.90
2019-05-15T16:42:38.471Z,14.80
2019-05-15T16:45:43.250Z,14.90
2019-05-15T16:48:49.478Z,15.00
2019-05-15T16:51:54.142Z,14.90
2019-05-15T16:54:58.876Z,14.60
2019-05-15T16:58:03.622Z,14.70
2019-05-15T17:01:08.639Z,14.60
2019-05-15T17:04:13.080Z,14.60
2019-05-15T17:07:18.210Z,14.50
2019-05-15T17:10:22.839Z,14.40
2019-05-15T17:13:28.734Z,14.50
2019-05-15T17:16:33.493Z,14.30
2019-05-15T17:19:38.180Z,14.30
2019-05-15T17:22:42.889Z,14.00
2019-05-15T17:25:48.887Z,13.90
2019-05-15T17:28:53.381Z,13.80
2019-05-15T17:31:57.833Z,13.70
2019-05-15T17:35:02.554Z,13.70
2019-05-15T17:38:06.984Z,13.70
2019-05-15T17:41:11.428Z,13.70
2019-05-15T17:44:16.226Z,13.60
2019-05-15T17:47:20.748Z,13.50
2019-05-15T17:50:25.186Z,13.40
2019-05-15T17:53:29.630Z,13.40
2019-05-15T17:56:34.721Z,13.30
2019-05-15T17:59:39.158Z,13.30
2019-05-15T18:02:43.973Z,13.20
2019-05-15T18:05:48.526Z,13.10
2019-05-15T18:08:53.233Z,13.20
2019-05-15T18:11:58.699Z,13.20
2019-05-15T18:15:03.293Z,13.10
2019-05-15T18:18:09.612Z,13.10
2019-05-15T18:21:13.986Z,13.10
2019-05-15T18:24:18.729Z,13.00
2019-05-15T18:27:23.179Z,13.00
2019-05-15T18:30:28.186Z,12.90
2019-05-15T18:33:33.309Z,12.80
2019-05-15T18:36:39.174Z,12.60
2019-05-15T18:39:43.880Z,12.50
2019-05-15T18:42:49.521Z,12.40
2019-05-15T18:45:54.140Z,12.40
2019-05-15T18:48:58.939Z,12.30
2019-05-15T18:52:03.658Z,12.30
2019-05-15T18:55:09.309Z,12.30
2019-05-15T18:58:13.753Z,12.40
2019-05-15T19:01:18.471Z,12.30
2019-05-15T19:04:23.199Z,12.30
2019-05-15T19:07:28.659Z,12.30
2019-05-15T19:10:33.250Z,12.20
2019-05-15T19:13:38.990Z,12.10
2019-05-15T19:16:43.759Z,12.10
2019-05-15T19:19:48.322Z,12.20
2019-05-15T19:22:53.015Z,12.10
2019-05-15T19:25:58.043Z,12.00
2019-05-15T19:29:02.568Z,12.00
2019-05-15T19:32:10.621Z,12.00
2019-05-15T19:35:13.911Z,11.80
2019-05-15T19:38:18.707Z,11.80
2019-05-15T19:41:23.129Z,11.80
2019-05-15T19:44:28.520Z,11.70
2019-05-15T19:47:33.188Z,11.60
2019-05-15T19:50:37.626Z,11.50
2019-05-15T19:53:42.078Z,11.40
2019-05-15T19:56:48.159Z,11.40
2019-05-15T19:59:52.710Z,11.40
2019-05-15T20:02:58.057Z,11.40
2019-05-15T20:06:03.660Z,11.30
2019-05-15T20:09:08.246Z,11.20
2019-05-15T20:12:12.698Z,11.10
2019-05-15T20:15:19.023Z,11.10
2019-05-15T20:18:23.683Z,11.10
2019-05-15T20:21:29.020Z,11.10
2019-05-15T20:24:34.352Z,11.00
2019-05-15T20:27:39.413Z,11.00
2019-05-15T20:30:44.259Z,10.90
2019-05-15T20:34:02.105Z,11.00
2019-05-15T20:36:55.461Z,11.00
2019-05-15T20:40:00.187Z,10.90
2019-05-15T20:43:05.237Z,10.80
2019-05-15T20:46:09.664Z,10.80
2019-05-15T20:49:14.105Z,10.80
2019-05-15T20:52:21.588Z,10.80
2019-05-15T20:55:24.977Z,10.70
2019-05-15T20:58:29.701Z,10.70
2019-05-15T21:01:34.198Z,10.70
2019-05-15T21:04:38.657Z,10.50
2019-05-15T21:07:43.557Z,10.40
2019-05-15T21:10:49.187Z,10.20
2019-05-15T21:13:54.074Z,10.00
2019-05-15T21:16:59.013Z,10.00
2019-05-15T21:20:04.238Z,10.00
2019-05-15T21:23:09.176Z,9.90
2019-05-15T21:26:13.808Z,9.80
2019-05-15T21:29:18.628Z,9.60
2019-05-15T21:32:23.384Z,9.50
2019-05-15T21:35:30.395Z,9.40
2019-05-15T21:38:33.971Z,9.20
2019-05-15T21:41:38.939Z,9.10
2019-05-15T21:44:43.330Z,8.90
2019-05-15T21:47:48.058Z,8.90
2019-05-15T21:50:52.487Z,8.80
2019-05-15T21:53:58.244Z,8.70
2019-05-15T21:57:18.807Z,8.70
2019-05-15T22:00:34.013Z,8.60
2019-05-15T22:03:38.983Z,8.50
2019-05-15T22:06:43.367Z,8.50
2019-05-15T22:09:48.754Z,8.40
2019-05-15T22:12:53.340Z,8.30
2019-05-15T22:15:59.271Z,8.20
2019-05-15T22:19:04.444Z,8.20
2019-05-15T22:22:09.275Z,8.10
2019-05-15T22:25:14.691Z,8.10
2019-05-15T22:28:19.452Z,8.00
2019-05-15T22:31:24.186Z,8.00
2019-05-15T22:34:28.916Z,8.10
2019-05-15T22:37:33.344Z,8.20
2019-05-15T22:40:38.115Z,8.20
2019-05-15T22:43:42.882Z,8.20
2019-05-15T22:46:48.771Z,8.20
2019-05-15T22:49:53.341Z,8.20
2019-05-15T22:52:58.978Z,8.10
2019-05-15T22:56:03.873Z,8.10
2019-05-15T22:59:08.665Z,8.10
2019-05-15T23:02:13.510Z,8.00
2019-05-15T23:05:27.791Z,8.00
2019-05-15T23:08:24.175Z,8.00
2019-05-15T23:11:29.937Z,7.90
2019-05-15T23:14:34.821Z,7.90
2019-05-15T23:17:39.525Z,8.00
2019-05-15T23:20:44.484Z,7.90
2019-05-15T23:23:48.969Z,7.90
2019-05-15T23:26:53.433Z,7.90
2019-05-15T23:29:58.308Z,7.90
2019-05-15T23:33:02.695Z,7.80
2019-05-15T23:36:07.124Z,7.70
2019-05-15T23:39:11.623Z,7.70
2019-05-15T23:42:18.474Z,7.60
2019-05-15T23:45:22.532Z,7.60
2019-05-15T23:48:28.425Z,7.60
2019-05-15T23:51:32.989Z,7.40
2019-05-15T23:54:38.513Z,7.40
2019-05-15T23:57:43.116Z,7.30
